New Market, Ohio
Current Conditions -  °F | °C
As of 12:54 PM on Sunday 25 Jan 2015 (Local Time) from KILN Reporting Station
Overcast Overcast  
Wind Chill: 33°   Ceiling: 8000
Heat Index: 38°   Visibility: 8mi
Dew Point: 33°   Wind: 6mph
Humidity: 83%   Direction: 140°SE
Pressure: 29.7"   Gusts: NA
Location:  39.1546°N, 83.569°W
Report Text: KILN 251754Z AUTO 14005KT 8SM SCT060 OVC080 03/01 A2970 RMK AO2 RAE04B24E46 SLP079 P0000 60001 T00330006 10033 20000 58014
Loading
Personal Weather Stations






























Interactive Weather Map New forecast layout! Learn more

10-Day Weather Forecast

Advertisements
Track Severe Weather on mobile